createdAt,value
2022-11-06T00:00:37.544Z,8.90
2022-11-06T00:03:06.564Z,8.90
2022-11-06T00:05:52.933Z,8.80
2022-11-06T00:08:29.927Z,8.80
2022-11-06T00:10:58.456Z,8.70
2022-11-06T00:13:29.079Z,8.70
2022-11-06T00:15:57.411Z,8.70
2022-11-06T00:18:28.728Z,8.70
2022-11-06T00:20:57.054Z,8.70
2022-11-06T00:23:25.409Z,8.70
2022-11-06T00:25:56.770Z,8.70
2022-11-06T00:28:25.156Z,8.70
2022-11-06T00:31:02.700Z,8.60
2022-11-06T00:33:31.017Z,8.70
2022-11-06T00:35:59.695Z,8.70
2022-11-06T00:38:28.029Z,8.60
2022-11-06T00:40:56.456Z,8.70
2022-11-06T00:43:24.864Z,8.70
2022-11-06T00:45:54.662Z,8.70
2022-11-06T00:48:22.984Z,8.60
2022-11-06T00:50:51.263Z,8.60
2022-11-06T00:53:19.666Z,8.50
2022-11-06T00:55:48.123Z,8.50
2022-11-06T00:58:16.505Z,8.50
2022-11-06T01:00:44.877Z,8.50
2022-11-06T01:03:14.703Z,8.50
2022-11-06T01:05:43.138Z,8.50
2022-11-06T01:08:11.955Z,8.40
2022-11-06T01:10:40.753Z,8.40
2022-11-06T01:13:09.295Z,8.30
2022-11-06T01:15:38.383Z,8.30
2022-11-06T01:18:06.760Z,8.30
2022-11-06T01:20:39.018Z,8.30
2022-11-06T01:23:07.332Z,8.30
2022-11-06T01:25:35.582Z,8.30
2022-11-06T01:28:03.884Z,8.30
2022-11-06T01:30:32.178Z,8.30
2022-11-06T01:33:00.460Z,8.40
2022-11-06T01:35:28.696Z,8.40
2022-11-06T01:37:58.690Z,8.50
2022-11-06T01:40:27.092Z,8.50
2022-11-06T01:42:55.509Z,8.40
2022-11-06T01:45:35.109Z,8.40
2022-11-06T01:48:05.387Z,8.40
2022-11-06T01:50:34.107Z,8.40
2022-11-06T01:53:04.222Z,8.40
2022-11-06T01:55:37.210Z,8.40
2022-11-06T01:58:08.935Z,8.50
2022-11-06T02:00:37.302Z,8.50
2022-11-06T02:03:05.902Z,8.50
2022-11-06T02:05:34.431Z,8.60
2022-11-06T02:08:05.678Z,8.70
2022-11-06T02:10:34.524Z,8.80
2022-11-06T02:13:22.699Z,8.80
2022-11-06T02:15:56.693Z,8.80
2022-11-06T02:18:52.234Z,8.90
2022-11-06T02:21:47.701Z,8.80
2022-11-06T02:24:43.481Z,8.80
2022-11-06T02:27:15.827Z,8.90
2022-11-06T02:29:55.949Z,8.90
2022-11-06T02:32:29.834Z,8.90
2022-11-06T02:35:02.033Z,8.80
2022-11-06T02:37:34.005Z,8.70
2022-11-06T02:40:06.332Z,8.80
2022-11-06T02:42:39.601Z,8.90
2022-11-06T02:45:11.419Z,8.90
2022-11-06T02:47:41.784Z,9.00
2022-11-06T02:50:13.321Z,9.00
2022-11-06T02:52:46.540Z,9.00
2022-11-06T02:55:19.778Z,9.00
2022-11-06T02:57:53.449Z,9.00
2022-11-06T03:00:23.877Z,8.90
2022-11-06T03:02:59.781Z,8.90
2022-11-06T03:05:33.391Z,8.80
2022-11-06T03:08:08.358Z,8.80
2022-11-06T03:10:44.979Z,8.80
2022-11-06T03:13:19.931Z,8.80
2022-11-06T03:15:54.335Z,8.80
2022-11-06T03:18:29.119Z,8.80
2022-11-06T03:21:03.115Z,8.80
2022-11-06T03:23:37.083Z,8.70
2022-11-06T03:26:14.675Z,8.70
2022-11-06T03:28:52.984Z,8.70
2022-11-06T03:31:28.913Z,8.70
2022-11-06T03:34:02.872Z,8.70
2022-11-06T03:36:35.512Z,8.80
2022-11-06T03:39:06.679Z,8.80
2022-11-06T03:41:42.695Z,8.80
2022-11-06T03:44:16.157Z,8.80
2022-11-06T03:46:49.004Z,8.80
2022-11-06T03:49:21.555Z,8.70
2022-11-06T03:51:53.658Z,8.70
2022-11-06T03:54:24.924Z,8.70
2022-11-06T03:56:57.545Z,8.70
2022-11-06T03:59:30.709Z,8.70
2022-11-06T04:02:00.384Z,8.70
2022-11-06T04:04:33.705Z,8.70
2022-11-06T04:07:07.051Z,8.70
2022-11-06T04:09:55.887Z,8.70
2022-11-06T04:12:44.815Z,8.70
2022-11-06T04:15:18.058Z,8.60
2022-11-06T04:17:46.519Z,8.50
2022-11-06T04:20:33.686Z,8.40
2022-11-06T04:23:13.734Z,8.40
2022-11-06T04:26:14.842Z,8.30
2022-11-06T04:28:50.401Z,8.30
2022-11-06T04:31:29.607Z,8.20
2022-11-06T04:34:04.963Z,8.20
2022-11-06T04:36:43.604Z,8.30
2022-11-06T04:39:18.170Z,8.30
2022-11-06T04:41:52.841Z,8.40
2022-11-06T04:44:26.402Z,8.40
2022-11-06T04:46:59.574Z,8.40
2022-11-06T04:49:30.727Z,8.50
2022-11-06T04:51:59.683Z,8.50
2022-11-06T04:54:28.195Z,8.50
2022-11-06T04:57:00.642Z,8.50
2022-11-06T04:59:29.437Z,8.50
2022-11-06T05:02:00.305Z,8.50
2022-11-06T05:04:28.797Z,8.50
2022-11-06T05:06:57.290Z,8.50
2022-11-06T05:09:26.097Z,8.50
2022-11-06T05:11:54.432Z,8.50
2022-11-06T05:14:22.869Z,8.40
2022-11-06T05:16:51.228Z,8.40
2022-11-06T05:19:21.096Z,8.40
2022-11-06T05:22:06.647Z,8.40
2022-11-06T05:24:35.006Z,8.40
2022-11-06T05:27:03.992Z,8.30
2022-11-06T05:29:32.445Z,8.30
2022-11-06T05:32:00.778Z,8.30
2022-11-06T05:34:30.625Z,8.30
2022-11-06T05:36:59.248Z,8.30
2022-11-06T05:39:27.550Z,8.40
2022-11-06T05:41:55.885Z,8.40
2022-11-06T05:44:24.473Z,8.40
2022-11-06T05:46:52.723Z,8.40
2022-11-06T05:49:21.086Z,8.50
2022-11-06T05:51:50.825Z,8.50
2022-11-06T05:54:19.205Z,8.50
2022-11-06T05:56:47.434Z,8.50
2022-11-06T05:59:15.789Z,8.50
2022-11-06T06:01:44.240Z,8.50
2022-11-06T06:04:12.712Z,8.50
2022-11-06T06:06:41.377Z,8.50
2022-11-06T06:09:11.230Z,8.50
2022-11-06T06:11:39.598Z,8.50
2022-11-06T06:14:07.947Z,8.60
2022-11-06T06:16:36.385Z,8.60
2022-11-06T06:19:04.878Z,8.50
2022-11-06T06:21:33.220Z,8.50
2022-11-06T06:24:01.983Z,8.60
2022-11-06T06:26:32.436Z,8.60
2022-11-06T06:29:02.276Z,8.60
2022-11-06T06:31:30.892Z,8.60
2022-11-06T06:34:01.324Z,8.60
2022-11-06T06:36:29.707Z,8.60
2022-11-06T06:38:58.065Z,8.60
2022-11-06T06:41:26.321Z,8.60
2022-11-06T06:43:56.059Z,8.60
2022-11-06T06:46:24.436Z,8.60
2022-11-06T06:48:52.825Z,8.60
2022-11-06T06:51:23.941Z,8.70
2022-11-06T06:53:52.636Z,8.70
2022-11-06T06:56:21.035Z,8.70
2022-11-06T06:58:49.474Z,8.70
2022-11-06T07:01:19.451Z,8.70
2022-11-06T07:03:47.912Z,8.80
2022-11-06T07:06:16.480Z,8.80
2022-11-06T07:08:44.862Z,8.80
2022-11-06T07:11:13.250Z,8.80
2022-11-06T07:13:41.956Z,8.80
2022-11-06T07:16:12.169Z,8.90
2022-11-06T07:18:42.237Z,9.00
2022-11-06T07:21:12.523Z,8.90
2022-11-06T07:23:41.254Z,9.00
2022-11-06T07:26:09.718Z,9.10
2022-11-06T07:28:38.225Z,9.10
2022-11-06T07:31:08.558Z,9.20
2022-11-06T07:33:37.319Z,9.20
2022-11-06T07:36:09.457Z,9.20
2022-11-06T07:38:38.779Z,9.30
2022-11-06T07:41:10.187Z,9.30
2022-11-06T07:43:39.347Z,9.40
2022-11-06T07:46:09.926Z,9.40
2022-11-06T07:48:39.645Z,9.50
2022-11-06T07:51:12.497Z,9.50
2022-11-06T07:53:41.628Z,9.60
2022-11-06T07:56:10.579Z,9.70
2022-11-06T07:58:39.906Z,9.80
2022-11-06T08:01:17.943Z,9.80
2022-11-06T08:03:47.610Z,9.90
2022-11-06T08:06:17.543Z,9.90
2022-11-06T08:08:46.055Z,10.00
2022-11-06T08:11:14.769Z,10.00
2022-11-06T08:13:44.240Z,10.10
2022-11-06T08:16:15.028Z,10.10
2022-11-06T08:18:45.089Z,10.10
2022-11-06T08:21:13.720Z,10.10
2022-11-06T08:23:43.748Z,10.20
2022-11-06T08:26:13.052Z,10.20
2022-11-06T08:28:43.654Z,10.30
2022-11-06T08:31:12.079Z,10.40
2022-11-06T08:33:41.713Z,10.50
2022-11-06T08:36:11.358Z,10.70
2022-11-06T08:38:40.207Z,10.90
2022-11-06T08:41:12.751Z,11.10
2022-11-06T08:43:41.728Z,11.30
2022-11-06T08:46:11.503Z,11.40
2022-11-06T08:48:40.233Z,11.40
2022-11-06T08:51:08.949Z,11.50
2022-11-06T08:53:37.566Z,11.50
2022-11-06T08:56:06.763Z,11.50
2022-11-06T08:58:36.952Z,11.50
2022-11-06T09:01:05.487Z,11.50
2022-11-06T09:03:34.196Z,11.60
2022-11-06T09:06:02.927Z,11.50
2022-11-06T09:08:31.310Z,11.40
2022-11-06T09:10:59.870Z,11.50
2022-11-06T09:13:28.406Z,11.50
2022-11-06T09:16:00.736Z,11.50
2022-11-06T09:18:29.303Z,11.70
2022-11-06T09:20:58.317Z,11.70
2022-11-06T09:23:27.470Z,11.80
2022-11-06T09:25:55.994Z,11.80
2022-11-06T09:28:24.894Z,11.80
2022-11-06T09:30:55.396Z,12.00
2022-11-06T09:33:26.034Z,12.20
2022-11-06T09:35:54.671Z,12.30
2022-11-06T09:38:23.137Z,12.30
2022-11-06T09:40:54.867Z,12.40
2022-11-06T09:44:04.697Z,12.50
2022-11-06T09:46:34.129Z,12.50
2022-11-06T09:49:12.339Z,12.50
2022-11-06T09:51:47.184Z,12.50
2022-11-06T09:54:21.873Z,12.50
2022-11-06T09:56:54.798Z,12.50
2022-11-06T09:59:23.869Z,12.60
2022-11-06T10:01:55.561Z,12.60
2022-11-06T10:04:37.070Z,12.60
2022-11-06T10:07:05.712Z,12.60
2022-11-06T10:09:35.111Z,12.60
2022-11-06T10:12:14.880Z,12.60
2022-11-06T10:14:54.741Z,12.60
2022-11-06T10:17:35.192Z,12.70
2022-11-06T10:20:13.750Z,12.90
2022-11-06T10:22:46.677Z,13.10
2022-11-06T10:25:22.229Z,13.30
2022-11-06T10:28:02.520Z,13.40
2022-11-06T10:30:41.806Z,13.40
2022-11-06T10:33:35.679Z,13.50
2022-11-06T10:36:09.406Z,13.60
2022-11-06T10:38:41.816Z,13.70
2022-11-06T10:41:18.778Z,13.80
2022-11-06T10:43:53.757Z,13.80
2022-11-06T10:46:28.658Z,13.50
2022-11-06T10:49:00.218Z,13.70
2022-11-06T10:51:58.962Z,13.90
2022-11-06T10:54:39.439Z,13.90
2022-11-06T10:57:19.670Z,13.70
2022-11-06T10:59:48.875Z,13.50
2022-11-06T11:02:26.179Z,13.60
2022-11-06T11:04:57.983Z,13.80
2022-11-06T11:07:32.741Z,13.80
2022-11-06T11:10:02.652Z,13.80
2022-11-06T11:12:33.694Z,13.80
2022-11-06T11:15:17.254Z,13.60
2022-11-06T11:18:10.150Z,13.60
2022-11-06T11:20:40.487Z,13.80
2022-11-06T11:23:18.600Z,13.70
2022-11-06T11:25:49.321Z,13.60
2022-11-06T11:28:39.723Z,13.40
2022-11-06T11:31:11.903Z,13.50
2022-11-06T11:33:41.917Z,13.60
2022-11-06T11:36:11.818Z,13.90
2022-11-06T11:38:43.310Z,14.00
2022-11-06T11:41:15.287Z,13.90
2022-11-06T11:43:44.279Z,13.90
2022-11-06T11:46:30.667Z,13.80
2022-11-06T11:49:00.294Z,13.60
2022-11-06T11:51:32.163Z,13.80
2022-11-06T11:54:07.438Z,14.10
2022-11-06T11:57:03.677Z,14.40
2022-11-06T11:59:38.653Z,14.70
2022-11-06T12:02:20.854Z,14.80
2022-11-06T12:04:54.406Z,15.00
2022-11-06T12:07:29.212Z,15.20
2022-11-06T12:10:06.788Z,15.50
2022-11-06T12:12:37.691Z,15.50
2022-11-06T12:15:21.482Z,15.90
2022-11-06T12:17:56.401Z,16.30
2022-11-06T12:20:31.730Z,16.40
2022-11-06T12:23:02.518Z,15.80
2022-11-06T12:25:37.488Z,15.70
2022-11-06T12:28:15.103Z,15.20
2022-11-06T12:30:47.493Z,14.80
2022-11-06T12:33:45.514Z,14.50
2022-11-06T12:36:18.451Z,14.40
2022-11-06T12:38:54.107Z,14.10
2022-11-06T12:41:27.360Z,13.90
2022-11-06T12:43:57.610Z,14.10
2022-11-06T12:46:42.856Z,14.50
2022-11-06T12:49:43.633Z,14.30
2022-11-06T12:52:29.207Z,14.10
2022-11-06T12:55:12.307Z,14.00
2022-11-06T12:58:04.406Z,13.80
2022-11-06T13:00:38.733Z,13.70
2022-11-06T13:03:35.871Z,13.60
2022-11-06T13:06:13.408Z,13.50
2022-11-06T13:08:50.733Z,13.60
2022-11-06T13:11:29.521Z,14.10
2022-11-06T13:14:09.716Z,14.40
2022-11-06T13:16:47.794Z,14.40
2022-11-06T13:19:22.104Z,14.50
2022-11-06T13:22:53.028Z,14.60
2022-11-06T13:25:29.375Z,14.50
2022-11-06T13:28:02.910Z,14.30
2022-11-06T13:30:35.281Z,14.10
2022-11-06T13:33:08.159Z,14.00
2022-11-06T13:35:40.232Z,13.80
2022-11-06T13:38:11.379Z,13.80
2022-11-06T13:40:44.328Z,13.60
2022-11-06T13:43:20.595Z,13.50
2022-11-06T13:45:57.971Z,13.50
2022-11-06T13:48:37.341Z,13.40
2022-11-06T13:51:13.973Z,13.40
2022-11-06T13:53:53.018Z,13.40
2022-11-06T13:56:43.440Z,13.50
2022-11-06T13:59:41.757Z,13.50
2022-11-06T14:02:44.211Z,13.30
2022-11-06T14:05:44.689Z,13.30
2022-11-06T14:08:17.966Z,13.30
2022-11-06T14:10:55.632Z,13.30
2022-11-06T14:13:33.484Z,13.30
2022-11-06T14:16:04.775Z,13.30
2022-11-06T14:18:35.538Z,13.40
2022-11-06T14:21:43.235Z,13.40
2022-11-06T14:24:35.105Z,13.40
2022-11-06T14:27:06.900Z,13.40
2022-11-06T14:30:00.577Z,13.30
2022-11-06T14:32:40.993Z,13.20
2022-11-06T14:35:52.342Z,13.20
2022-11-06T14:38:38.196Z,13.20
2022-11-06T14:41:49.411Z,13.10
2022-11-06T14:44:30.700Z,13.00
2022-11-06T14:47:02.498Z,12.90
2022-11-06T14:49:44.090Z,12.80
2022-11-06T14:52:16.067Z,12.80
2022-11-06T14:55:04.376Z,12.70
2022-11-06T14:57:43.742Z,12.70
2022-11-06T15:00:34.127Z,12.70
2022-11-06T15:03:03.550Z,12.70
2022-11-06T15:05:42.151Z,12.70
2022-11-06T15:08:11.733Z,12.60
2022-11-06T15:10:56.469Z,12.60
2022-11-06T15:13:27.725Z,12.60
2022-11-06T15:16:03.561Z,12.60
2022-11-06T15:18:34.421Z,12.50
2022-11-06T15:21:06.256Z,12.50
2022-11-06T15:23:42.786Z,12.50
2022-11-06T15:26:25.557Z,12.40
2022-11-06T15:29:08.084Z,12.20
2022-11-06T15:31:37.397Z,11.90
2022-11-06T15:34:08.513Z,11.60
2022-11-06T15:36:41.521Z,11.40
2022-11-06T15:39:34.648Z,11.20
2022-11-06T15:42:09.481Z,10.90
2022-11-06T15:44:42.701Z,10.80
2022-11-06T15:47:22.755Z,10.60
2022-11-06T15:50:08.601Z,10.40
2022-11-06T15:52:37.265Z,10.30
2022-11-06T15:55:07.173Z,10.30
2022-11-06T15:57:37.673Z,10.20
2022-11-06T16:00:11.162Z,10.10
2022-11-06T16:02:49.400Z,10.00
2022-11-06T16:05:19.330Z,9.90
2022-11-06T16:07:49.336Z,9.90
2022-11-06T16:10:18.511Z,9.80
2022-11-06T16:12:49.557Z,9.80
2022-11-06T16:15:53.127Z,9.70
2022-11-06T16:18:27.136Z,9.60
2022-11-06T16:20:59.846Z,9.50
2022-11-06T16:23:38.545Z,9.50
2022-11-06T16:26:10.545Z,9.40
2022-11-06T16:30:30.444Z,9.50
2022-11-06T16:36:55.203Z,9.20
2022-11-06T16:39:49.871Z,9.20
2022-11-06T16:42:26.994Z,9.10
2022-11-06T16:45:10.607Z,9.10
2022-11-06T16:47:39.869Z,9.00
2022-11-06T16:50:43.681Z,9.00
2022-11-06T16:53:13.388Z,9.00
2022-11-06T16:55:42.257Z,8.90
2022-11-06T16:58:17.658Z,9.00
2022-11-06T17:00:47.850Z,9.00
2022-11-06T17:03:22.687Z,9.00
2022-11-06T17:05:54.406Z,9.00
2022-11-06T17:08:25.287Z,9.10
2022-11-06T17:10:54.891Z,9.10
2022-11-06T17:13:24.897Z,9.20
2022-11-06T17:15:57.185Z,9.20
2022-11-06T17:18:28.124Z,9.20
2022-11-06T17:20:58.756Z,9.30
2022-11-06T17:23:28.880Z,9.30
2022-11-06T17:26:00.417Z,9.40
2022-11-06T17:28:29.479Z,9.40
2022-11-06T17:30:59.821Z,9.50
2022-11-06T17:33:28.493Z,9.50
2022-11-06T17:35:57.131Z,9.50
2022-11-06T17:38:26.002Z,9.50
2022-11-06T17:40:54.623Z,9.50
2022-11-06T17:43:23.145Z,9.40
2022-11-06T17:45:53.844Z,9.40
2022-11-06T17:48:24.201Z,9.30
2022-11-06T17:51:10.577Z,9.30
2022-11-06T17:53:39.205Z,9.30
2022-11-06T17:56:08.938Z,9.30
2022-11-06T17:59:24.139Z,9.40
2022-11-06T18:02:21.763Z,9.50
2022-11-06T18:05:08.881Z,9.60
2022-11-06T18:07:39.851Z,9.60
2022-11-06T18:10:09.489Z,9.60
2022-11-06T18:12:41.339Z,9.60
2022-11-06T18:15:35.558Z,9.60
2022-11-06T18:18:04.649Z,9.50
2022-11-06T18:20:34.705Z,9.50
2022-11-06T18:23:03.265Z,9.60
2022-11-06T18:25:31.893Z,9.60
2022-11-06T18:28:13.726Z,9.60
2022-11-06T18:30:42.308Z,9.60
2022-11-06T18:33:10.860Z,9.60
2022-11-06T18:35:40.822Z,9.60
2022-11-06T18:38:09.979Z,9.60
2022-11-06T18:40:40.033Z,9.60
2022-11-06T18:43:09.020Z,9.70
2022-11-06T18:45:38.918Z,9.70
2022-11-06T18:48:08.232Z,9.70
2022-11-06T18:50:37.891Z,9.70
2022-11-06T18:53:07.973Z,9.80
2022-11-06T18:55:36.580Z,9.80
2022-11-06T18:58:14.572Z,9.80
2022-11-06T19:00:43.547Z,9.90
2022-11-06T19:03:12.354Z,9.90
2022-11-06T19:05:50.316Z,10.00
2022-11-06T19:08:22.678Z,10.00
2022-11-06T19:10:51.485Z,10.00
2022-11-06T19:13:33.814Z,10.00
2022-11-06T19:16:04.096Z,10.00
2022-11-06T19:18:39.213Z,10.10
2022-11-06T19:21:11.870Z,10.10
2022-11-06T19:23:45.204Z,10.10
2022-11-06T19:26:31.901Z,10.20
2022-11-06T19:29:01.335Z,10.20
2022-11-06T19:31:30.758Z,10.20
2022-11-06T19:34:01.128Z,10.20
2022-11-06T19:36:31.613Z,10.30
2022-11-06T19:39:02.228Z,10.30
2022-11-06T19:41:34.290Z,10.30
2022-11-06T19:44:03.667Z,10.30
2022-11-06T19:46:46.035Z,10.40
2022-11-06T19:49:15.019Z,10.40
2022-11-06T19:51:43.912Z,10.40
2022-11-06T19:54:14.689Z,10.50
2022-11-06T19:57:28.577Z,10.50
2022-11-06T19:59:38.105Z,10.50
2022-11-06T20:02:07.430Z,10.50
2022-11-06T20:04:36.562Z,10.50
2022-11-06T20:07:05.949Z,10.60
2022-11-06T20:09:36.173Z,10.60
2022-11-06T20:12:05.455Z,10.60
2022-11-06T20:14:34.469Z,10.60
2022-11-06T20:17:03.835Z,10.70
2022-11-06T20:19:32.536Z,10.70
2022-11-06T20:22:02.887Z,10.60
2022-11-06T20:24:31.758Z,10.50
2022-11-06T20:27:01.809Z,10.60
2022-11-06T20:29:31.385Z,10.60
2022-11-06T20:31:59.995Z,10.70
2022-11-06T20:34:29.030Z,10.70
2022-11-06T20:36:57.637Z,10.70
2022-11-06T20:39:26.146Z,10.70
2022-11-06T20:41:54.734Z,10.80
2022-11-06T20:44:25.032Z,10.70
2022-11-06T20:46:53.554Z,10.80
2022-11-06T20:49:22.079Z,10.80
2022-11-06T20:52:12.652Z,10.80
2022-11-06T20:54:43.711Z,10.80
2022-11-06T20:57:15.105Z,10.80
2022-11-06T20:59:44.977Z,10.80
2022-11-06T21:02:13.682Z,10.80
2022-11-06T21:04:43.395Z,10.90
2022-11-06T21:07:11.877Z,10.90
2022-11-06T21:09:42.870Z,10.90
2022-11-06T21:12:11.801Z,10.90
2022-11-06T21:14:40.318Z,11.00
2022-11-06T21:17:10.240Z,11.00
2022-11-06T21:19:38.638Z,11.00
2022-11-06T21:22:06.957Z,11.10
2022-11-06T21:24:35.442Z,11.20
2022-11-06T21:27:03.761Z,11.20
2022-11-06T21:29:32.277Z,11.20
2022-11-06T21:32:00.545Z,11.30
2022-11-06T21:34:30.500Z,11.30
2022-11-06T21:37:02.636Z,11.40
2022-11-06T21:39:35.785Z,11.50
2022-11-06T21:42:04.939Z,11.50
2022-11-06T21:44:33.859Z,11.60
2022-11-06T21:47:02.251Z,11.60
2022-11-06T21:49:32.070Z,11.60
2022-11-06T21:52:25.096Z,11.50
2022-11-06T21:55:13.665Z,11.50
2022-11-06T21:57:42.167Z,11.60
2022-11-06T22:00:14.433Z,11.60
2022-11-06T22:02:43.738Z,11.60
2022-11-06T22:05:13.694Z,11.60
2022-11-06T22:07:42.162Z,11.60
2022-11-06T22:10:10.975Z,11.60
2022-11-06T22:12:39.512Z,11.60
2022-11-06T22:15:08.994Z,11.50
2022-11-06T22:17:38.225Z,11.40
2022-11-06T22:20:07.707Z,11.40
2022-11-06T22:22:37.389Z,11.40
2022-11-06T22:25:06.300Z,11.40
2022-11-06T22:27:39.627Z,11.40
2022-11-06T22:30:10.423Z,11.50
2022-11-06T22:32:38.824Z,11.60
2022-11-06T22:35:07.406Z,11.60
2022-11-06T22:37:37.333Z,11.60
2022-11-06T22:40:06.767Z,11.50
2022-11-06T22:42:35.246Z,11.60
2022-11-06T22:45:03.996Z,11.60
2022-11-06T22:47:32.470Z,11.60
2022-11-06T22:50:00.799Z,11.60
2022-11-06T22:52:29.102Z,11.70
2022-11-06T22:54:58.841Z,11.70
2022-11-06T22:57:27.076Z,11.70
2022-11-06T22:59:55.380Z,11.80
2022-11-06T23:02:23.892Z,11.80
2022-11-06T23:04:52.436Z,11.80
2022-11-06T23:07:20.852Z,11.80
2022-11-06T23:09:49.133Z,11.80
2022-11-06T23:12:19.017Z,11.80
2022-11-06T23:14:47.316Z,11.80
2022-11-06T23:17:15.565Z,11.80
2022-11-06T23:19:43.837Z,11.70
2022-11-06T23:22:31.532Z,11.80
2022-11-06T23:24:59.822Z,11.80
2022-11-06T23:27:29.616Z,11.80
2022-11-06T23:30:00.834Z,11.90
2022-11-06T23:32:29.465Z,11.90
2022-11-06T23:34:58.127Z,11.90
2022-11-06T23:37:27.258Z,11.90
2022-11-06T23:39:55.585Z,11.90
2022-11-06T23:42:24.184Z,11.90
2022-11-06T23:45:19.824Z,11.90
2022-11-06T23:47:50.355Z,11.90
2022-11-06T23:50:19.400Z,11.90
2022-11-06T23:52:47.969Z,11.80
2022-11-06T23:55:16.266Z,11.70
2022-11-06T23:57:44.767Z,11.70
